N1OTX Weather Reports


time (UTC)temp
F
wind
direction
speed
knots
gust
knots
rain 1hr
in
rain 24hr
in
rain mn
in
humidity
%
barometer
mb
20220627202002 73 180 1.7 5.2 0.00 0.55 0.55 91 1011.9
20220627201502 73 180 1.7 6.1 0.00 0.55 0.55 91 1011.9
20220627201002 73 203 2.6 6.1 0.00 0.55 0.55 91 1011.9
20220627200502 73 180 1.7 3.5 0.00 0.55 0.55 92 1012.0
20220627200002 73 225 1.7 6.1 0.00 0.55 0.55 91 1011.9
20220627195502 73 203 2.6 6.1 0.00 0.55 0.55 92 1011.9
20220627195002 73 203 3.5 7.8 0.01 0.55 0.55 92 1011.9
20220627194502 73 180 0.9 4.3 0.02 0.55 0.55 92 1011.9
20220627194002 73 203 3.5 6.1 0.02 0.55 0.55 92 1012.0
20220627193502 73 180 2.6 7.0 0.03 0.55 0.55 92 1012.0
20220627193002 73 203 0.9 2.6 0.05 0.55 0.55 92 1012.0
20220627192502 73 203 0.9 4.3 0.07 0.55 0.55 92 1012.0
20220627192002 73 203 1.7 5.2 0.07 0.55 0.55 92 1012.0
20220627191502 73 203 1.7 5.2 0.07 0.55 0.55 92 1012.0
20220627191002 73 225 1.7 4.3 0.07 0.55 0.55 92 1012.0
20220627190502 73 203 0.9 3.5 0.07 0.55 0.55 92 1012.0
20220627190002 73 203 0.9 1.7 0.07 0.55 0.55 92 1012.1
20220627185502 73 225 1.7 3.5 0.07 0.55 0.55 92 1012.2
20220627185002 73 203 0.9 3.5 0.06 0.54 0.54 91 1012.2
20220627184502 73 203 2.6 7.0 0.05 0.53 0.53 91 1012.2
20220627184002 73 203 2.6 7.0 0.05 0.53 0.53 91 1012.2
20220627183502 73 180 1.7 4.3 0.04 0.52 0.52 91 1012.2
20220627183002 73 180 0.9 1.7 0.02 0.50 0.50 92 1012.2
20220627182502 73 203 1.7 5.2 0.01 0.48 0.48 91 1012.2
20220627182002 73 180 1.7 4.3 0.02 0.48 0.48 91 1012.2
20220627181502 73 203 1.7 5.2 0.02 0.48 0.48 91 1012.2
20220627181002 73 203 1.7 6.1 0.02 0.48 0.48 92 1012.2
20220627180502 73 225 1.7 5.2 0.02 0.48 0.48 91 1012.2
20220627180002 73 180 2.6 6.1 0.02 0.48 0.48 91 1012.3
20220627175502 73 203 2.6 7.0 0.02 0.48 0.48 91 1012.3
20220627175002 73 180 2.6 6.1 0.02 0.48 0.48 91 1012.3
20220627174502 73 203 1.7 5.2 0.02 0.48 0.48 91 1012.4
20220627174002 73 225 1.7 6.1 0.02 0.48 0.48 91 1012.4
20220627173502 73 225 1.7 5.2 0.02 0.48 0.48 91 1012.3
20220627173001 73 225 1.7 5.2 0.03 0.48 0.48 91 1012.3
20220627172502 73 180 2.6 9.6 0.02 0.47 0.47 91 1012.2
20220627172001 73 203 2.6 8.7 0.01 0.46 0.46 91 1012.2
20220627171502 73 203 2.6 7.0 0.01 0.46 0.46 91 1012.3
20220627171002 73 248 1.7 5.2 0.01 0.46 0.46 91 1012.3
20220627170502 73 225 1.7 6.1 0.01 0.46 0.46 91 1012.2
20220627170001 73 180 1.7 5.2 0.02 0.46 0.46 91 1012.1
20220627165502 73 158 2.6 7.8 0.03 0.46 0.46 91 1012.1
20220627165001 72 203 2.6 7.0 0.03 0.46 0.46 91 1012.1
20220627164502 72 203 3.5 7.8 0.05 0.46 0.46 91 1012.2
20220627164001 72 180 3.5 8.7 0.17 0.46 0.46 91 1012.2
20220627163501 72 203 3.5 8.7 0.28 0.46 0.46 91 1012.2
20220627163002 72 203 3.5 8.7 0.35 0.45 0.45 91 1012.3
20220627162502 72 203 0.9 4.3 0.43 0.45 0.45 91 1012.3
20220627162001 72 203 2.6 7.8 0.45 0.45 0.45 91 1012.2
20220627161501 72 158 1.7 5.2 0.45 0.45 0.45 91 1012.3
20220627161002 72 203 1.7 5.2 0.45 0.45 0.45 91 1012.3
20220627160502 72 180 1.7 5.2 0.45 0.45 0.45 91 1012.3
20220627160002 72 180 1.7 5.2 0.44 0.44 0.44 90 1012.4
20220627155502 72 203 1.7 5.2 0.43 0.43 0.43 90 1012.4
20220627155001 72 203 1.7 5.2 0.43 0.43 0.43 90 1012.3
20220627154501 72 225 0.9 5.2 0.41 0.41 0.41 89 1012.4
20220627154001 72 158 1.7 6.1 0.29 0.29 0.29 88 1012.3
20220627153501 73 225 2.6 8.7 0.18 0.18 0.18 87 1012.4
20220627153002 73 203 1.7 5.2 0.10 0.10 0.10 86 1012.3
20220627152502 74 180 1.7 3.5 0.02 0.02 0.02 85 1012.4
20220627152001 74 203 3.5 11.3 0.00 0.00 0.00 84 1012.5
20220627151501 74 203 2.6 9.6 0.00 0.00 0.00 84 1012.4
20220627151001 75 0 2.6 7.0 0.00 0.00 0.00 83 1012.3
20220627150501 75 203 1.7 7.0 0.00 0.00 0.00 83 1012.2
20220627150001 75 225 1.7 7.0 0.00 0.00 0.00 84 1012.2
20220627145501 74 180 2.6 7.8 0.00 0.00 0.00 84 1012.1
20220627145001 75 203 2.6 7.0 0.00 0.00 0.00 83 1012.1
20220627144502 75 203 2.6 8.7 0.00 0.00 0.00 81 1011.9
20220627144002 76 203 3.5 10.4 0.00 0.00 0.00 79 1011.9
20220627143502 76 203 6.1 14.8 0.00 0.00 0.00 78 1011.9
20220627143001 76 203 2.6 10.4 0.00 0.00 0.00 78 1011.9
20220627142502 76 203 5.2 20.0 0.00 0.00 0.00 77 1011.9
20220627142002 76 203 3.5 11.3 0.00 0.00 0.00 78 1012.0
20220627141501 76 180 5.2 11.3 0.00 0.00 0.00 77 1012.0
20220627141001 76 180 5.2 10.4 0.00 0.00 0.00 77 1012.0
20220627140501 76 203 3.5 9.6 0.00 0.00 0.00 77 1012.0
20220627140002 75 203 5.2 12.2 0.00 0.00 0.00 77 1012.0
20220627135501 75 203 4.3 12.2 0.00 0.00 0.00 77 1011.9
20220627135001 76 203 4.3 15.6 0.00 0.00 0.00 77 1011.9
20220627134501 75 180 4.3 11.3 0.00 0.00 0.00 77 1011.9
20220627134001 75 203 4.3 13.9 0.00 0.00 0.00 77 1011.9
20220627133501 75 203 5.2 13.0 0.00 0.00 0.00 77 1011.9
20220627133001 75 203 6.1 13.0 0.00 0.00 0.00 76 1011.9
20220627132501 75 180 6.1 13.0 0.00 0.00 0.00 77 1011.8
20220627132001 75 203 6.1 13.0 0.00 0.00 0.00 77 1011.8
20220627131501 75 180 3.5 9.6 0.00 0.00 0.00 77 1011.9
20220627131001 75 203 5.2 9.6 0.00 0.00 0.00 77 1012.0
20220627130501 75 180 3.5 10.4 0.00 0.00 0.00 76 1012.0
20220627130001 75 203 4.3 11.3 0.00 0.00 0.00 76 1011.9
20220627125501 75 203 3.5 9.6 0.00 0.00 0.00 76 1011.9
20220627125001 75 180 4.3 11.3 0.00 0.00 0.00 77 1012.0
20220627124501 75 158 4.3 11.3 0.00 0.00 0.00 77 1012.0
20220627124001 75 203 5.2 12.2 0.00 0.00 0.00 76 1012.0
20220627123501 75 180 3.5 8.7 0.00 0.00 0.00 77 1012.1
20220627123001 75 180 5.2 10.4 0.00 0.00 0.00 76 1012.1
20220627122501 75 225 4.3 13.9 0.00 0.00 0.00 76 1012.2
20220627122001 75 203 4.3 11.3 0.00 0.00 0.00 76 1012.3
20220627121501 75 203 4.3 8.7 0.00 0.00 0.00 77 1012.1
20220627121001 74 203 4.3 12.2 0.00 0.00 0.00 77 1012.3
20220627120501 74 180 2.6 10.4 0.00 0.00 0.00 77 1012.2
20220627120001 74 203 3.5 10.4 0.00 0.00 0.00 77 1012.2
20220627115501 74 180 2.6 5.2 0.00 0.00 0.00 76 1012.3
20220627115001 74 203 4.3 10.4 0.00 0.00 0.00 76 1012.4
20220627114501 74 180 4.3 11.3 0.00 0.00 0.00 76 1012.4
20220627114001 74 180 2.6 6.1 0.00 0.00 0.00 76 1012.5
20220627113501 74 180 1.7 6.1 0.00 0.00 0.00 76 1012.4
20220627113001 74 203 3.5 8.7 0.00 0.00 0.00 76 1012.3
20220627112501 73 180 4.3 12.2 0.00 0.00 0.00 76 1012.3
20220627112001 73 203 5.2 11.3 0.00 0.00 0.00 75 1012.4
20220627111501 73 180 5.2 13.9 0.00 0.00 0.00 75 1012.4
20220627111001 73 180 4.3 10.4 0.00 0.00 0.00 76 1012.5
20220627110501 73 203 3.5 9.6 0.00 0.00 0.00 76 1012.5
20220627110001 72 203 4.3 10.4 0.00 0.00 0.00 76 1012.5
20220627105501 72 180 4.3 8.7 0.00 0.00 0.00 75 1012.5
20220627105001 72 180 4.3 7.8 0.00 0.00 0.00 75 1012.6
20220627104501 73 203 2.6 7.0 0.00 0.00 0.00 75 1012.6
20220627104001 72 203 4.3 10.4 0.00 0.00 0.00 74 1012.5
20220627103501 73 203 5.2 11.3 0.00 0.00 0.00 74 1012.5
20220627103001 72 180 3.5 7.0 0.00 0.00 0.00 74 1012.5
20220627102501 72 203 2.6 10.4 0.00 0.00 0.00 74 1012.6
20220627102001 72 203 3.5 11.3 0.00 0.00 0.00 74 1012.6
20220627101501 72 180 3.5 8.7 0.00 0.00 0.00 74 1012.5
20220627101001 72 203 4.3 9.6 0.00 0.00 0.00 74 1012.6
20220627100501 72 180 4.3 10.4 0.00 0.00 0.00 75 1012.6
20220627100001 72 203 3.5 8.7 0.00 0.00 0.00 75 1012.6
20220627095501 72 203 1.7 4.3 0.00 0.00 0.00 75 1012.7
20220627095001 72 203 3.5 10.4 0.00 0.00 0.00 75 1012.7
20220627094501 71 203 3.5 8.7 0.00 0.00 0.00 75 1012.8
20220627094001 71 203 3.5 7.8 0.00 0.00 0.00 75 1012.8
20220627093501 71 203 3.5 6.1 0.00 0.00 0.00 75 1012.9
20220627093001 71 203 3.5 7.0 0.00 0.00 0.00 75 1012.9
20220627092501 71 203 3.5 7.8 0.00 0.00 0.00 75 1012.9
20220627092001 71 203 2.6 6.1 0.00 0.00 0.00 75 1012.8
20220627091501 71 203 6.1 13.9 0.00 0.00 0.00 75 1012.9
20220627091001 71 203 3.5 9.6 0.00 0.00 0.00 74 1012.9
20220627090501 71 203 3.5 8.7 0.00 0.00 0.00 74 1012.9
20220627090001 71 180 4.3 9.6 0.00 0.00 0.00 74 1013.0
20220627085501 72 180 4.3 9.6 0.00 0.00 0.00 74 1013.0
20220627085001 72 180 2.6 13.0 0.00 0.00 0.00 74 1013.0
20220627084501 72 203 2.6 13.0 0.00 0.00 0.00 74 1013.1
20220627084001 72 225 2.6 9.6 0.00 0.00 0.00 73 1013.1
20220627083501 72 203 2.6 10.4 0.00 0.00 0.00 73 1013.1
20220627083001 72 203 2.6 7.8 0.00 0.00 0.00 73 1013.1
20220627082501 72 180 3.5 8.7 0.00 0.00 0.00 73 1013.2
20220627082001 72 180 3.5 10.4 0.00 0.00 0.00 73 1013.3
20220627081501 72 180 2.6 6.1 0.00 0.00 0.00 72 1013.4
20220627081001 72 203 4.3 8.7 0.00 0.00 0.00 72 1013.4
20220627080501 72 180 2.6 6.1 0.00 0.00 0.00 72 1013.4
20220627080001 72 225 2.6 7.0 0.00 0.00 0.00 71 1013.5
20220627075501 72 225 3.5 7.8 0.00 0.00 0.00 71 1013.6
20220627075001 72 180 2.6 7.0 0.00 0.00 0.00 71 1013.5
20220627074501 72 203 4.3 9.6 0.00 0.00 0.00 70 1013.6
20220627074001 72 180 1.7 7.8 0.00 0.00 0.00 70 1013.7
20220627073501 72 180 1.7 5.2 0.00 0.00 0.00 69 1013.8
20220627073001 72 203 2.6 7.0 0.00 0.00 0.00 69 1013.8
20220627072501 72 203 3.5 10.4 0.00 0.00 0.00 68 1013.9
20220627072001 72 203 3.5 9.6 0.00 0.00 0.00 68 1014.0
20220627071501 72 180 3.5 7.8 0.00 0.00 0.00 68 1014.1
20220627071001 72 180 2.6 7.0 0.00 0.00 0.00 67 1014.2
20220627070501 72 203 2.6 5.2 0.00 0.00 0.00 67 1014.3
20220627070001 72 203 4.3 9.6 0.00 0.00 0.00 67 1014.3
20220627065501 72 203 2.6 6.1 0.00 0.00 0.00 66 1014.3
20220627065001 72 180 2.6 6.1 0.00 0.00 0.00 66 1014.3
20220627064501 72 180 1.7 6.1 0.00 0.00 0.00 65 1014.3
20220627064001 72 180 2.6 4.3 0.00 0.00 0.00 65 1014.4
20220627063501 72 180 2.6 7.0 0.00 0.00 0.00 65 1014.4
20220627063001 72 180 2.6 8.7 0.00 0.00 0.00 64 1014.5
20220627062501 72 203 3.5 6.1 0.00 0.00 0.00 64 1014.5
20220627062001 72 203 3.5 6.1 0.00 0.00 0.00 63 1014.6
20220627061501 72 203 2.6 7.8 0.00 0.00 0.00 63 1014.6
20220627061001 72 180 2.6 5.2 0.00 0.00 0.00 63 1014.6
20220627060501 72 180 3.5 7.0 0.00 0.00 0.00 62 1014.8
20220627060001 73 180 1.7 5.2 0.00 0.00 0.00 62 1014.8
20220627055503 73 225 3.5 6.1 0.00 0.00 0.00 62 1014.7
20220627055002 73 180 3.5 7.0 0.00 0.00 0.00 62 1014.8
20220627054503 73 203 2.6 7.8 0.00 0.00 0.00 62 1014.8
20220627054003 73 203 3.5 9.6 0.00 0.00 0.00 62 1014.9
20220627053503 73 203 2.6 9.6 0.00 0.00 0.00 61 1014.9
20220627053003 73 203 2.6 6.1 0.00 0.00 0.00 61 1015.0
20220627052502 73 180 2.6 8.7 0.00 0.00 0.00 61 1015.0
20220627052002 73 180 2.6 8.7 0.00 0.00 0.00 61 1014.9
20220627051502 73 203 3.5 8.7 0.00 0.00 0.00 60 1014.9
20220627051003 73 203 3.5 7.8 0.00 0.00 0.00 60 1015.1
20220627050503 73 180 3.5 7.8 0.00 0.00 0.00 60 1015.2
20220627050002 73 203 4.3 9.6 0.00 0.00 0.00 61 1015.2
20220627045503 73 203 2.6 7.8 0.00 0.00 0.00 61 1015.2
20220627045002 73 180 2.6 4.3 0.00 0.00 0.00 61 1015.3
20220627044502 73 180 2.6 6.1 0.00 0.00 0.00 62 1015.3
20220627044003 73 203 2.6 7.0 0.00 0.00 0.00 62 1015.3
20220627043503 73 203 2.6 7.0 0.00 0.00 0.00 62 1015.3
20220627043002 73 225 0.9 3.5 0.00 0.00 0.00 62 1015.3
20220627042503 73 180 1.7 6.1 0.00 0.00 0.00 62 1015.3
20220627042002 73 203 2.6 7.8 0.00 0.00 0.00 63 1015.5
20220627041503 73 203 2.6 6.1 0.00 0.00 0.00 63 1015.5
20220627041003 73 203 1.7 5.2 0.00 0.00 0.00 63 1015.6
20220627040502 73 203 1.7 6.1 0.00 0.00 0.00 63 1015.6
20220627040004 74 180 2.6 4.3 0.00 0.00 0.00 63 1015.6
20220627035503 74 203 1.7 5.2 0.00 0.00 0.00 63 1015.6
20220627035002 74 180 1.7 4.3 0.00 0.00 0.00 63 1015.6
20220627034502 74 180 2.6 7.8 0.00 0.00 0.00 64 1015.7
20220627034002 74 180 2.6 7.8 0.00 0.00 0.00 64 1015.6
20220627033502 74 203 1.7 5.2 0.00 0.00 0.00 64 1015.6
20220627033002 74 180 2.6 7.0 0.00 0.00 0.00 64 1015.6
20220627032502 74 158 1.7 5.2 0.00 0.00 0.00 65 1015.6
20220627032003 75 180 1.7 4.3 0.00 0.00 0.00 65 1015.7
20220627031503 75 180 2.6 6.1 0.00 0.00 0.00 65 1015.7
20220627031003 75 180 3.5 7.0 0.00 0.00 0.00 66 1015.7
20220627030502 75 225 1.7 6.1 0.00 0.00 0.00 67 1015.7
20220627030002 75 203 2.6 7.8 0.00 0.00 0.00 67 1015.7
20220627025503 75 180 3.5 7.8 0.00 0.00 0.00 68 1015.7
20220627025002 75 158 1.7 7.0 0.00 0.00 0.00 69 1015.8
20220627024502 75 180 2.6 5.2 0.00 0.00 0.00 69 1015.9
20220627024002 76 203 2.6 7.8 0.00 0.00 0.00 69 1016.0
20220627023502 76 203 1.7 6.1 0.00 0.00 0.00 69 1016.0
20220627023002 76 203 4.3 9.6 0.00 0.00 0.00 69 1015.9
20220627022502 76 203 2.6 6.1 0.00 0.00 0.00 70 1015.9
20220627022003 76 203 2.6 6.1 0.00 0.00 0.00 70 1016.0
20220627021502 76 203 2.6 7.0 0.00 0.00 0.00 71 1016.1
20220627021002 76 180 2.6 7.8 0.00 0.00 0.00 71 1016.1
20220627020502 77 203 2.6 5.2 0.00 0.00 0.00 71 1016.1
20220627020002 77 203 3.5 7.0 0.00 0.00 0.00 72 1016.0
20220627015502 77 180 2.6 8.7 0.00 0.00 0.00 72 1016.1
20220627015002 77 203 3.5 10.4 0.00 0.00 0.00 72 1015.9
20220627014502 77 203 3.5 7.8 0.00 0.00 0.00 72 1015.9
20220627014002 77 180 3.5 8.7 0.00 0.00 0.00 72 1015.9
20220627013502 77 203 3.5 6.1 0.00 0.00 0.00 72 1015.8
20220627013002 78 203 2.6 7.0 0.00 0.00 0.00 72 1015.7
20220627012502 78 180 2.6 6.1 0.00 0.00 0.00 72 1015.7
20220627012002 78 158 2.6 7.8 0.00 0.00 0.00 71 1015.6
20220627011502 78 158 2.6 7.0 0.00 0.00 0.00 71 1015.6
20220627011003 78 203 2.6 7.0 0.00 0.00 0.00 71 1015.6
20220627010502 78 180 2.6 7.0 0.00 0.00 0.00 70 1015.5
20220627010002 79 203 3.5 7.8 0.00 0.00 0.00 70 1015.5
20220627005502 79 225 2.6 7.0 0.00 0.00 0.00 69 1015.5
20220627005003 79 225 1.7 5.2 0.00 0.00 0.00 68 1015.5
20220627004503 79 158 2.6 9.6 0.00 0.00 0.00 67 1015.5
20220627004003 79 180 3.5 5.2 0.00 0.00 0.00 67 1015.5
20220627003502 79 180 3.5 12.2 0.00 0.00 0.00 66 1015.4
20220627003002 80 180 2.6 6.1 0.00 0.00 0.00 65 1015.4
20220627002502 80 225 2.6 5.2 0.00 0.00 0.00 65 1015.4
20220627002002 80 180 2.6 7.0 0.00 0.00 0.00 64 1015.4
20220627001503 80 135 3.5 6.1 0.00 0.00 0.00 63 1015.3
20220627001003 81 180 3.5 9.6 0.00 0.00 0.00 62 1015.4
20220627000503 81 180 2.6 6.1 0.00 0.00 0.00 61 1015.4
20220627000002 81 180 2.6 7.0 0.00 0.00 0.00 60 1015.5
20220626235502 81 135 2.6 6.1 0.00 0.00 0.00 60 1015.5
20220626235002 81 225 2.6 6.1 0.00 0.00 0.00 59 1015.5
20220626234502 81 180 1.7 6.1 0.00 0.00 0.00 58 1015.5
20220626234002 82 203 2.6 7.0 0.00 0.00 0.00 56 1015.4
20220626233502 82 225 3.5 8.7 0.00 0.00 0.00 55 1015.3
20220626233002 82 225 0.9 5.2 0.00 0.00 0.00 53 1015.3
20220626232502 82 225 3.5 7.8 0.00 0.00 0.00 52 1015.3
20220626232002 83 180 4.3 8.7 0.00 0.00 0.00 51 1015.3
20220626231502 83 203 3.5 9.6 0.00 0.00 0.00 50 1015.3
20220626231002 83 203 6.1 13.0 0.00 0.00 0.00 50 1015.2
20220626230502 83 158 5.2 13.9 0.00 0.00 0.00 52 1015.3
20220626230002 83 203 5.2 14.8 0.00 0.00 0.00 51 1015.2
20220626225502 84 135 5.2 13.0 0.00 0.00 0.00 51 1015.2
20220626225002 84 158 5.2 13.0 0.00 0.00 0.00 51 1015.2
20220626224502 84 180 6.1 11.3 0.00 0.00 0.00 52 1015.1
20220626224002 84 203 7.0 13.9 0.00 0.00 0.00 51 1015.2
20220626223502 84 203 5.2 13.0 0.00 0.00 0.00 51 1015.1
20220626223002 85 180 7.0 13.0 0.00 0.00 0.00 51 1015.2
20220626222502 85 225 6.1 11.3 0.00 0.00 0.00 51 1015.1
20220626222002 85 180 6.1 11.3 0.00 0.00 0.00 51 1015.2
20220626221502 86 180 7.0 16.5 0.00 0.00 0.00 51 1015.2
20220626221002 86 180 5.2 11.3 0.00 0.00 0.00 51 1015.1
20220626220502 86 203 5.2 12.2 0.00 0.00 0.00 51 1015.1
20220626220002 86 225 4.3 10.4 0.00 0.00 0.00 51 1015.1
20220626215502 87 180 8.7 16.5 0.00 0.00 0.00 50 1015.0
20220626215002 87 158 5.2 12.2 0.00 0.00 0.00 51 1015.0
20220626214502 87 180 7.0 14.8 0.00 0.00 0.00 51 1015.0
20220626214002 88 203 7.0 12.2 0.00 0.00 0.00 51 1015.0
20220626213502 88 203 6.1 15.6 0.00 0.00 0.00 50 1014.9
20220626213002 89 203 7.8 13.9 0.00 0.00 0.00 50 1015.0
20220626212502 89 203 7.0 16.5 0.00 0.00 0.00 49 1015.0
20220626212002 90 180 5.2 13.0 0.00 0.00 0.00 48 1015.0
20220626211502 90 203 3.5 7.8 0.00 0.00 0.00 46 1015.0
20220626211002 91 203 2.6 8.7 0.00 0.00 0.00 46 1015.0
20220626210502 91 203 3.5 7.8 0.00 0.00 0.00 47 1015.1
20220626210002 90 203 1.7 6.1 0.00 0.00 0.00 47 1015.0
20220626205502 91 90 1.7 7.0 0.00 0.00 0.00 48 1015.1
20220626205002 91 135 4.3 7.8 0.00 0.00 0.00 48 1015.3
20220626204502 91 158 3.5 7.0 0.00 0.00 0.00 47 1015.3
20220626204002 91 113 2.6 7.0 0.00 0.00 0.00 47 1015.3
20220626203502 92 158 3.5 7.8 0.00 0.00 0.00 45 1015.3
20220626203002 92 158 4.3 9.6 0.00 0.00 0.00 46 1015.3
20220626202502 91 113 1.7 5.2 0.00 0.00 0.00 49 1015.3